sensor_id;sensor_type;location;lat;lon;timestamp;P1;durP1;ratioP1;P2;durP2;ratioP2
38463;SDS011;24243;51.956;5.902;2023-05-10T00:00:26;1.73;;;0.60;;
38463;SDS011;24243;51.956;5.902;2023-05-10T00:02:52;1.65;;;0.40;;
38463;SDS011;24243;51.956;5.902;2023-05-10T00:05:18;0.65;;;0.40;;
38463;SDS011;24243;51.956;5.902;2023-05-10T00:07:43;2.08;;;0.50;;
38463;SDS011;24243;51.956;5.902;2023-05-10T00:10:10;1.58;;;0.50;;
38463;SDS011;24243;51.956;5.902;2023-05-10T00:12:36;1.52;;;0.50;;
38463;SDS011;24243;51.956;5.902;2023-05-10T00:15:02;1.58;;;0.50;;
38463;SDS011;24243;51.956;5.902;2023-05-10T00:17:28;0.77;;;0.52;;
38463;SDS011;24243;51.956;5.902;2023-05-10T00:19:53;1.80;;;0.50;;
38463;SDS011;24243;51.956;5.902;2023-05-10T00:22:19;0.70;;;0.55;;
38463;SDS011;24243;51.956;5.902;2023-05-10T00:24:45;1.42;;;0.70;;
38463;SDS011;24243;51.956;5.902;2023-05-10T00:27:11;0.93;;;0.60;;
38463;SDS011;24243;51.956;5.902;2023-05-10T00:29:37;1.08;;;0.47;;
38463;SDS011;24243;51.956;5.902;2023-05-10T00:32:03;1.20;;;0.50;;
38463;SDS011;24243;51.956;5.902;2023-05-10T00:34:29;0.90;;;0.50;;
38463;SDS011;24243;51.956;5.902;2023-05-10T00:36:55;1.13;;;0.40;;
38463;SDS011;24243;51.956;5.902;2023-05-10T00:39:21;1.38;;;0.52;;
38463;SDS011;24243;51.956;5.902;2023-05-10T00:41:46;1.77;;;0.50;;
38463;SDS011;24243;51.956;5.902;2023-05-10T00:44:12;1.48;;;0.57;;
38463;SDS011;24243;51.956;5.902;2023-05-10T00:46:38;1.27;;;0.60;;
38463;SDS011;24243;51.956;5.902;2023-05-10T00:49:04;1.10;;;0.70;;
38463;SDS011;24243;51.956;5.902;2023-05-10T00:51:30;0.88;;;0.63;;
38463;SDS011;24243;51.956;5.902;2023-05-10T00:53:56;1.77;;;0.70;;
38463;SDS011;24243;51.956;5.902;2023-05-10T00:56:23;0.90;;;0.60;;
38463;SDS011;24243;51.956;5.902;2023-05-10T00:58:50;1.15;;;0.63;;
38463;SDS011;24243;51.956;5.902;2023-05-10T01:01:16;2.42;;;0.75;;
38463;SDS011;24243;51.956;5.902;2023-05-10T01:03:42;1.30;;;0.73;;
38463;SDS011;24243;51.956;5.902;2023-05-10T01:06:08;1.75;;;0.70;;
38463;SDS011;24243;51.956;5.902;2023-05-10T01:08:35;1.52;;;0.65;;
38463;SDS011;24243;51.956;5.902;2023-05-10T01:11:01;1.20;;;0.88;;
38463;SDS011;24243;51.956;5.902;2023-05-10T01:15:57;1.33;;;0.70;;
38463;SDS011;24243;51.956;5.902;2023-05-10T01:18:23;0.95;;;0.60;;
38463;SDS011;24243;51.956;5.902;2023-05-10T01:20:58;1.00;;;0.63;;
38463;SDS011;24243;51.956;5.902;2023-05-10T01:28:58;0.88;;;0.52;;
38463;SDS011;24243;51.956;5.902;2023-05-10T01:35:08;1.20;;;0.70;;
38463;SDS011;24243;51.956;5.902;2023-05-10T01:37:47;1.02;;;0.70;;
38463;SDS011;24243;51.956;5.902;2023-05-10T01:40:30;1.33;;;0.70;;
38463;SDS011;24243;51.956;5.902;2023-05-10T01:43:02;1.10;;;0.63;;
38463;SDS011;24243;51.956;5.902;2023-05-10T01:45:40;1.67;;;0.55;;
38463;SDS011;24243;51.956;5.902;2023-05-10T01:48:38;0.90;;;0.60;;
38463;SDS011;24243;51.956;5.902;2023-05-10T01:51:12;1.08;;;0.70;;
38463;SDS011;24243;51.956;5.902;2023-05-10T01:53:46;0.95;;;0.70;;
38463;SDS011;24243;51.956;5.902;2023-05-10T01:56:13;0.80;;;0.50;;
38463;SDS011;24243;51.956;5.902;2023-05-10T01:58:42;1.30;;;0.80;;
38463;SDS011;24243;51.956;5.902;2023-05-10T02:01:11;0.85;;;0.60;;
38463;SDS011;24243;51.956;5.902;2023-05-10T02:03:38;1.67;;;0.80;;
38463;SDS011;24243;51.956;5.902;2023-05-10T02:06:05;1.10;;;0.63;;
38463;SDS011;24243;51.956;5.902;2023-05-10T02:08:32;1.15;;;0.70;;
38463;SDS011;24243;51.956;5.902;2023-05-10T02:11:01;1.35;;;0.80;;
38463;SDS011;24243;51.956;5.902;2023-05-10T02:13:28;0.77;;;0.60;;
38463;SDS011;24243;51.956;5.902;2023-05-10T02:15:56;1.77;;;0.70;;
38463;SDS011;24243;51.956;5.902;2023-05-10T02:18:24;0.82;;;0.68;;
38463;SDS011;24243;51.956;5.902;2023-05-10T02:20:51;1.30;;;0.70;;
38463;SDS011;24243;51.956;5.902;2023-05-10T02:23:20;1.25;;;0.60;;
38463;SDS011;24243;51.956;5.902;2023-05-10T02:25:47;1.48;;;0.80;;
38463;SDS011;24243;51.956;5.902;2023-05-10T02:28:14;0.95;;;0.77;;
38463;SDS011;24243;51.956;5.902;2023-05-10T02:30:40;1.00;;;0.70;;
38463;SDS011;24243;51.956;5.902;2023-05-10T02:33:07;0.82;;;0.63;;
38463;SDS011;24243;51.956;5.902;2023-05-10T02:35:34;1.42;;;0.82;;
38463;SDS011;24243;51.956;5.902;2023-05-10T02:38:01;1.17;;;0.80;;
38463;SDS011;24243;51.956;5.902;2023-05-10T02:40:27;1.83;;;1.02;;
38463;SDS011;24243;51.956;5.902;2023-05-10T02:42:54;1.65;;;0.88;;
38463;SDS011;24243;51.956;5.902;2023-05-10T02:45:23;0.93;;;0.63;;
38463;SDS011;24243;51.956;5.902;2023-05-10T02:47:53;1.30;;;0.90;;
38463;SDS011;24243;51.956;5.902;2023-05-10T02:50:19;1.25;;;0.93;;
38463;SDS011;24243;51.956;5.902;2023-05-10T02:52:47;1.52;;;0.90;;
38463;SDS011;24243;51.956;5.902;2023-05-10T02:55:19;1.45;;;1.02;;
38463;SDS011;24243;51.956;5.902;2023-05-10T02:57:59;1.40;;;0.80;;
38463;SDS011;24243;51.956;5.902;2023-05-10T03:00:26;1.00;;;0.90;;
38463;SDS011;24243;51.956;5.902;2023-05-10T03:02:52;1.77;;;1.00;;
38463;SDS011;24243;51.956;5.902;2023-05-10T03:05:18;1.70;;;0.80;;
38463;SDS011;24243;51.956;5.902;2023-05-10T03:07:44;1.38;;;0.90;;
38463;SDS011;24243;51.956;5.902;2023-05-10T03:10:11;1.95;;;1.02;;
38463;SDS011;24243;51.956;5.902;2023-05-10T03:15:19;1.63;;;1.08;;
38463;SDS011;24243;51.956;5.902;2023-05-10T03:17:54;1.67;;;1.05;;
38463;SDS011;24243;51.956;5.902;2023-05-10T03:20:31;1.45;;;0.93;;
38463;SDS011;24243;51.956;5.902;2023-05-10T03:23:26;2.15;;;0.95;;
38463;SDS011;24243;51.956;5.902;2023-05-10T03:25:48;1.20;;;0.88;;
38463;SDS011;24243;51.956;5.902;2023-05-10T03:28:15;1.40;;;1.10;;
38463;SDS011;24243;51.956;5.902;2023-05-10T03:30:43;1.70;;;1.00;;
38463;SDS011;24243;51.956;5.902;2023-05-10T03:33:10;1.55;;;1.13;;
38463;SDS011;24243;51.956;5.902;2023-05-10T03:35:35;1.80;;;1.20;;
38463;SDS011;24243;51.956;5.902;2023-05-10T03:38:01;1.52;;;1.00;;
38463;SDS011;24243;51.956;5.902;2023-05-10T03:40:27;1.40;;;0.95;;
38463;SDS011;24243;51.956;5.902;2023-05-10T03:43:00;1.88;;;1.20;;
38463;SDS011;24243;51.956;5.902;2023-05-10T03:47:51;1.58;;;1.13;;
38463;SDS011;24243;51.956;5.902;2023-05-10T03:50:17;2.30;;;1.30;;
38463;SDS011;24243;51.956;5.902;2023-05-10T03:52:43;2.08;;;1.45;;
38463;SDS011;24243;51.956;5.902;2023-05-10T03:55:09;1.33;;;1.05;;
38463;SDS011;24243;51.956;5.902;2023-05-10T03:57:35;1.90;;;1.20;;
38463;SDS011;24243;51.956;5.902;2023-05-10T04:00:01;2.60;;;1.20;;
38463;SDS011;24243;51.956;5.902;2023-05-10T04:02:27;1.55;;;1.30;;
38463;SDS011;24243;51.956;5.902;2023-05-10T04:04:54;1.70;;;1.10;;
38463;SDS011;24243;51.956;5.902;2023-05-10T04:07:20;1.52;;;1.05;;
38463;SDS011;24243;51.956;5.902;2023-05-10T04:09:46;1.58;;;1.30;;
38463;SDS011;24243;51.956;5.902;2023-05-10T04:12:12;1.23;;;1.00;;
38463;SDS011;24243;51.956;5.902;2023-05-10T04:14:38;1.33;;;1.17;;
38463;SDS011;24243;51.956;5.902;2023-05-10T04:17:03;1.65;;;1.20;;
38463;SDS011;24243;51.956;5.902;2023-05-10T04:19:30;2.45;;;1.73;;
38463;SDS011;24243;51.956;5.902;2023-05-10T04:21:56;2.20;;;1.30;;
38463;SDS011;24243;51.956;5.902;2023-05-10T04:24:22;2.78;;;1.88;;
38463;SDS011;24243;51.956;5.902;2023-05-10T04:26:48;2.45;;;1.88;;
38463;SDS011;24243;51.956;5.902;2023-05-10T04:29:14;2.35;;;1.60;;
38463;SDS011;24243;51.956;5.902;2023-05-10T04:31:40;3.42;;;2.03;;
38463;SDS011;24243;51.956;5.902;2023-05-10T04:34:05;3.42;;;1.77;;
38463;SDS011;24243;51.956;5.902;2023-05-10T04:36:31;2.58;;;1.55;;
38463;SDS011;24243;51.956;5.902;2023-05-10T04:39:01;4.10;;;1.95;;
38463;SDS011;24243;51.956;5.902;2023-05-10T04:41:28;2.72;;;1.80;;
38463;SDS011;24243;51.956;5.902;2023-05-10T04:43:54;3.47;;;1.65;;
38463;SDS011;24243;51.956;5.902;2023-05-10T04:46:19;3.22;;;2.03;;
38463;SDS011;24243;51.956;5.902;2023-05-10T04:48:45;2.35;;;1.90;;
38463;SDS011;24243;51.956;5.902;2023-05-10T04:51:11;3.92;;;1.60;;
38463;SDS011;24243;51.956;5.902;2023-05-10T04:53:37;3.03;;;1.63;;
38463;SDS011;24243;51.956;5.902;2023-05-10T04:56:03;2.15;;;1.70;;
38463;SDS011;24243;51.956;5.902;2023-05-10T04:58:29;3.08;;;1.98;;
38463;SDS011;24243;51.956;5.902;2023-05-10T05:00:55;1.88;;;1.63;;
38463;SDS011;24243;51.956;5.902;2023-05-10T05:03:20;2.70;;;1.80;;
38463;SDS011;24243;51.956;5.902;2023-05-10T05:05:47;3.95;;;1.80;;
38463;SDS011;24243;51.956;5.902;2023-05-10T05:08:13;2.33;;;1.77;;
38463;SDS011;24243;51.956;5.902;2023-05-10T05:10:38;2.63;;;2.00;;
38463;SDS011;24243;51.956;5.902;2023-05-10T05:13:04;2.78;;;1.67;;
38463;SDS011;24243;51.956;5.902;2023-05-10T05:15:30;3.10;;;1.75;;
38463;SDS011;24243;51.956;5.902;2023-05-10T05:17:56;2.40;;;1.70;;
38463;SDS011;24243;51.956;5.902;2023-05-10T05:20:22;2.38;;;1.70;;
38463;SDS011;24243;51.956;5.902;2023-05-10T05:22:48;1.98;;;1.77;;
38463;SDS011;24243;51.956;5.902;2023-05-10T05:25:14;3.00;;;1.90;;
38463;SDS011;24243;51.956;5.902;2023-05-10T05:27:41;3.65;;;1.92;;
38463;SDS011;24243;51.956;5.902;2023-05-10T05:30:25;2.55;;;1.95;;
38463;SDS011;24243;51.956;5.902;2023-05-10T05:32:51;9.98;;;6.88;;
38463;SDS011;24243;51.956;5.902;2023-05-10T05:35:17;11.65;;;8.57;;
38463;SDS011;24243;51.956;5.902;2023-05-10T05:37:43;10.50;;;7.22;;
38463;SDS011;24243;51.956;5.902;2023-05-10T05:40:11;8.52;;;5.70;;
38463;SDS011;24243;51.956;5.902;2023-05-10T05:42:40;6.93;;;4.70;;
38463;SDS011;24243;51.956;5.902;2023-05-10T05:45:06;5.20;;;4.18;;
38463;SDS011;24243;51.956;5.902;2023-05-10T05:47:52;5.18;;;4.05;;
38463;SDS011;24243;51.956;5.902;2023-05-10T05:50:18;5.75;;;4.43;;
38463;SDS011;24243;51.956;5.902;2023-05-10T05:52:43;5.97;;;4.60;;
38463;SDS011;24243;51.956;5.902;2023-05-10T05:55:09;5.38;;;4.18;;
38463;SDS011;24243;51.956;5.902;2023-05-10T05:57:35;5.70;;;4.15;;
38463;SDS011;24243;51.956;5.902;2023-05-10T06:00:01;5.40;;;3.90;;
38463;SDS011;24243;51.956;5.902;2023-05-10T06:02:28;6.10;;;4.05;;
38463;SDS011;24243;51.956;5.902;2023-05-10T06:04:53;4.88;;;3.38;;
38463;SDS011;24243;51.956;5.902;2023-05-10T06:07:19;5.55;;;3.97;;
38463;SDS011;24243;51.956;5.902;2023-05-10T06:09:45;5.63;;;4.05;;
38463;SDS011;24243;51.956;5.902;2023-05-10T06:12:11;4.95;;;3.80;;
38463;SDS011;24243;51.956;5.902;2023-05-10T06:14:36;6.55;;;3.75;;
38463;SDS011;24243;51.956;5.902;2023-05-10T06:17:02;5.93;;;3.50;;
38463;SDS011;24243;51.956;5.902;2023-05-10T06:19:30;5.45;;;3.67;;
38463;SDS011;24243;51.956;5.902;2023-05-10T06:21:55;5.78;;;3.58;;
38463;SDS011;24243;51.956;5.902;2023-05-10T06:24:21;4.22;;;3.40;;
38463;SDS011;24243;51.956;5.902;2023-05-10T06:26:47;4.70;;;3.58;;
38463;SDS011;24243;51.956;5.902;2023-05-10T06:29:14;5.88;;;3.75;;
38463;SDS011;24243;51.956;5.902;2023-05-10T06:31:40;7.28;;;4.60;;
38463;SDS011;24243;51.956;5.902;2023-05-10T06:34:06;6.43;;;4.68;;
38463;SDS011;24243;51.956;5.902;2023-05-10T06:36:33;5.85;;;4.05;;
38463;SDS011;24243;51.956;5.902;2023-05-10T06:38:58;5.93;;;4.20;;
38463;SDS011;24243;51.956;5.902;2023-05-10T06:41:24;5.53;;;3.78;;
38463;SDS011;24243;51.956;5.902;2023-05-10T06:43:50;5.93;;;4.15;;
38463;SDS011;24243;51.956;5.902;2023-05-10T06:46:16;6.03;;;4.07;;
38463;SDS011;24243;51.956;5.902;2023-05-10T06:48:41;6.13;;;3.47;;
38463;SDS011;24243;51.956;5.902;2023-05-10T06:51:07;6.40;;;4.05;;
38463;SDS011;24243;51.956;5.902;2023-05-10T06:53:33;5.10;;;3.90;;
38463;SDS011;24243;51.956;5.902;2023-05-10T06:55:58;5.85;;;3.33;;
38463;SDS011;24243;51.956;5.902;2023-05-10T06:58:24;4.13;;;3.33;;
38463;SDS011;24243;51.956;5.902;2023-05-10T07:00:50;4.80;;;3.85;;
38463;SDS011;24243;51.956;5.902;2023-05-10T07:03:15;5.97;;;3.30;;
38463;SDS011;24243;51.956;5.902;2023-05-10T07:05:41;4.90;;;3.65;;
38463;SDS011;24243;51.956;5.902;2023-05-10T07:08:07;4.22;;;3.50;;
38463;SDS011;24243;51.956;5.902;2023-05-10T07:10:33;3.78;;;3.20;;
38463;SDS011;24243;51.956;5.902;2023-05-10T07:12:59;4.32;;;3.30;;
38463;SDS011;24243;51.956;5.902;2023-05-10T07:15:26;5.00;;;3.80;;
38463;SDS011;24243;51.956;5.902;2023-05-10T07:17:52;4.40;;;3.03;;
38463;SDS011;24243;51.956;5.902;2023-05-10T07:20:17;4.30;;;3.58;;
38463;SDS011;24243;51.956;5.902;2023-05-10T07:22:43;4.38;;;3.30;;
38463;SDS011;24243;51.956;5.902;2023-05-10T07:25:09;4.72;;;2.85;;
38463;SDS011;24243;51.956;5.902;2023-05-10T07:27:35;4.30;;;3.15;;
38463;SDS011;24243;51.956;5.902;2023-05-10T07:30:00;4.55;;;3.47;;
38463;SDS011;24243;51.956;5.902;2023-05-10T07:32:26;4.50;;;3.25;;
38463;SDS011;24243;51.956;5.902;2023-05-10T07:34:52;4.85;;;3.22;;
38463;SDS011;24243;51.956;5.902;2023-05-10T07:37:17;5.07;;;3.35;;
38463;SDS011;24243;51.956;5.902;2023-05-10T07:39:43;5.95;;;3.15;;
38463;SDS011;24243;51.956;5.902;2023-05-10T07:42:09;4.13;;;3.22;;
38463;SDS011;24243;51.956;5.902;2023-05-10T07:44:35;4.30;;;2.85;;
38463;SDS011;24243;51.956;5.902;2023-05-10T07:47:00;4.60;;;3.35;;
38463;SDS011;24243;51.956;5.902;2023-05-10T07:49:26;5.53;;;3.13;;
38463;SDS011;24243;51.956;5.902;2023-05-10T07:51:51;4.22;;;2.97;;
38463;SDS011;24243;51.956;5.902;2023-05-10T07:54:17;4.43;;;3.00;;
38463;SDS011;24243;51.956;5.902;2023-05-10T07:56:43;4.85;;;3.47;;
38463;SDS011;24243;51.956;5.902;2023-05-10T07:59:14;4.00;;;3.05;;
38463;SDS011;24243;51.956;5.902;2023-05-10T08:01:42;4.90;;;3.45;;
38463;SDS011;24243;51.956;5.902;2023-05-10T08:04:08;5.00;;;3.10;;
38463;SDS011;24243;51.956;5.902;2023-05-10T08:06:34;4.78;;;2.90;;
38463;SDS011;24243;51.956;5.902;2023-05-10T08:08:59;4.65;;;3.63;;
38463;SDS011;24243;51.956;5.902;2023-05-10T08:11:25;3.88;;;3.15;;
38463;SDS011;24243;51.956;5.902;2023-05-10T08:14:11;5.70;;;3.67;;
38463;SDS011;24243;51.956;5.902;2023-05-10T08:16:36;4.53;;;3.38;;
38463;SDS011;24243;51.956;5.902;2023-05-10T08:19:02;4.40;;;3.53;;
38463;SDS011;24243;51.956;5.902;2023-05-10T08:21:28;6.63;;;3.65;;
38463;SDS011;24243;51.956;5.902;2023-05-10T08:23:54;5.50;;;3.72;;
38463;SDS011;24243;51.956;5.902;2023-05-10T08:26:20;4.88;;;3.50;;
38463;SDS011;24243;51.956;5.902;2023-05-10T08:28:46;5.05;;;4.05;;
38463;SDS011;24243;51.956;5.902;2023-05-10T08:31:12;5.25;;;3.83;;
38463;SDS011;24243;51.956;5.902;2023-05-10T08:33:37;4.45;;;3.58;;
38463;SDS011;24243;51.956;5.902;2023-05-10T08:36:03;5.43;;;3.40;;
38463;SDS011;24243;51.956;5.902;2023-05-10T08:38:29;4.97;;;3.58;;
38463;SDS011;24243;51.956;5.902;2023-05-10T08:40:55;4.20;;;3.28;;
38463;SDS011;24243;51.956;5.902;2023-05-10T08:43:27;4.47;;;3.80;;
38463;SDS011;24243;51.956;5.902;2023-05-10T08:45:54;5.18;;;3.50;;
38463;SDS011;24243;51.956;5.902;2023-05-10T08:48:24;4.68;;;3.45;;
38463;SDS011;24243;51.956;5.902;2023-05-10T08:50:51;4.85;;;3.38;;
38463;SDS011;24243;51.956;5.902;2023-05-10T08:53:19;4.93;;;3.03;;
38463;SDS011;24243;51.956;5.902;2023-05-10T08:55:46;4.90;;;3.28;;
38463;SDS011;24243;51.956;5.902;2023-05-10T08:58:12;4.40;;;3.35;;
38463;SDS011;24243;51.956;5.902;2023-05-10T09:00:39;5.85;;;3.85;;
38463;SDS011;24243;51.956;5.902;2023-05-10T09:03:05;6.32;;;3.70;;
38463;SDS011;24243;51.956;5.902;2023-05-10T09:05:32;4.50;;;3.55;;
38463;SDS011;24243;51.956;5.902;2023-05-10T09:07:57;4.07;;;3.15;;
38463;SDS011;24243;51.956;5.902;2023-05-10T09:10:25;4.82;;;3.10;;
38463;SDS011;24243;51.956;5.902;2023-05-10T09:12:53;4.32;;;3.30;;
38463;SDS011;24243;51.956;5.902;2023-05-10T09:15:20;3.30;;;2.90;;
38463;SDS011;24243;51.956;5.902;2023-05-10T09:17:47;4.78;;;3.20;;
38463;SDS011;24243;51.956;5.902;2023-05-10T09:20:14;5.25;;;3.55;;
38463;SDS011;24243;51.956;5.902;2023-05-10T09:22:40;5.10;;;3.80;;
38463;SDS011;24243;51.956;5.902;2023-05-10T09:25:07;7.05;;;4.22;;
38463;SDS011;24243;51.956;5.902;2023-05-10T09:27:38;5.57;;;4.38;;
38463;SDS011;24243;51.956;5.902;2023-05-10T09:30:05;6.18;;;4.45;;
38463;SDS011;24243;51.956;5.902;2023-05-10T09:32:38;5.57;;;3.90;;
38463;SDS011;24243;51.956;5.902;2023-05-10T09:37:41;3.83;;;3.05;;
38463;SDS011;24243;51.956;5.902;2023-05-10T09:40:12;3.33;;;2.90;;
38463;SDS011;24243;51.956;5.902;2023-05-10T09:42:42;5.00;;;2.80;;
38463;SDS011;24243;51.956;5.902;2023-05-10T09:45:20;4.47;;;2.65;;
38463;SDS011;24243;51.956;5.902;2023-05-10T09:47:46;4.38;;;2.70;;
38463;SDS011;24243;51.956;5.902;2023-05-10T09:50:12;4.95;;;2.90;;
38463;SDS011;24243;51.956;5.902;2023-05-10T09:52:54;4.40;;;2.60;;
38463;SDS011;24243;51.956;5.902;2023-05-10T09:55:24;3.25;;;2.25;;
38463;SDS011;24243;51.956;5.902;2023-05-10T09:58:12;6.55;;;3.30;;
38463;SDS011;24243;51.956;5.902;2023-05-10T10:00:40;4.30;;;2.70;;
38463;SDS011;24243;51.956;5.902;2023-05-10T10:03:11;4.68;;;3.08;;
38463;SDS011;24243;51.956;5.902;2023-05-10T10:05:39;5.45;;;2.90;;
38463;SDS011;24243;51.956;5.902;2023-05-10T10:08:07;4.80;;;3.20;;
38463;SDS011;24243;51.956;5.902;2023-05-10T10:10:33;5.00;;;3.80;;
38463;SDS011;24243;51.956;5.902;2023-05-10T10:12:59;4.80;;;3.50;;
38463;SDS011;24243;51.956;5.902;2023-05-10T10:15:26;6.40;;;3.20;;
38463;SDS011;24243;51.956;5.902;2023-05-10T10:17:52;4.80;;;3.28;;
38463;SDS011;24243;51.956;5.902;2023-05-10T10:20:19;5.40;;;3.35;;
38463;SDS011;24243;51.956;5.902;2023-05-10T10:22:46;5.03;;;3.13;;
38463;SDS011;24243;51.956;5.902;2023-05-10T10:25:14;4.07;;;2.88;;
38463;SDS011;24243;51.956;5.902;2023-05-10T10:35:31;4.25;;;2.35;;
38463;SDS011;24243;51.956;5.902;2023-05-10T10:38:16;3.37;;;2.27;;
38463;SDS011;24243;51.956;5.902;2023-05-10T10:40:42;4.28;;;2.47;;
38463;SDS011;24243;51.956;5.902;2023-05-10T10:43:21;3.97;;;2.47;;
38463;SDS011;24243;51.956;5.902;2023-05-10T10:46:09;4.55;;;2.28;;
38463;SDS011;24243;51.956;5.902;2023-05-10T10:49:08;2.90;;;1.98;;
38463;SDS011;24243;51.956;5.902;2023-05-10T10:51:38;3.15;;;1.88;;
38463;SDS011;24243;51.956;5.902;2023-05-10T10:54:11;4.38;;;2.42;;
38463;SDS011;24243;51.956;5.902;2023-05-10T10:56:37;3.60;;;2.30;;
38463;SDS011;24243;51.956;5.902;2023-05-10T10:59:03;3.83;;;2.45;;
38463;SDS011;24243;51.956;5.902;2023-05-10T11:01:34;3.55;;;2.40;;
38463;SDS011;24243;51.956;5.902;2023-05-10T11:06:29;3.50;;;2.47;;
38463;SDS011;24243;51.956;5.902;2023-05-10T11:08:59;4.00;;;2.58;;
38463;SDS011;24243;51.956;5.902;2023-05-10T11:11:31;3.75;;;2.28;;
38463;SDS011;24243;51.956;5.902;2023-05-10T11:14:02;3.28;;;2.40;;
38463;SDS011;24243;51.956;5.902;2023-05-10T11:16:29;2.78;;;2.00;;
38463;SDS011;24243;51.956;5.902;2023-05-10T11:19:08;3.25;;;2.20;;
38463;SDS011;24243;51.956;5.902;2023-05-10T11:21:48;3.45;;;2.20;;
38463;SDS011;24243;51.956;5.902;2023-05-10T11:24:16;3.75;;;2.20;;
38463;SDS011;24243;51.956;5.902;2023-05-10T11:26:43;3.33;;;2.20;;
38463;SDS011;24243;51.956;5.902;2023-05-10T11:29:09;3.72;;;2.20;;
38463;SDS011;24243;51.956;5.902;2023-05-10T11:31:34;4.22;;;2.05;;
38463;SDS011;24243;51.956;5.902;2023-05-10T11:34:06;3.92;;;2.20;;
38463;SDS011;24243;51.956;5.902;2023-05-10T11:36:33;2.72;;;2.03;;
38463;SDS011;24243;51.956;5.902;2023-05-10T11:39:00;3.47;;;2.10;;
38463;SDS011;24243;51.956;5.902;2023-05-10T11:41:28;2.78;;;2.05;;
38463;SDS011;24243;51.956;5.902;2023-05-10T11:43:55;2.20;;;1.90;;
38463;SDS011;24243;51.956;5.902;2023-05-10T11:46:25;2.40;;;1.83;;
38463;SDS011;24243;51.956;5.902;2023-05-10T11:48:53;2.70;;;2.00;;
38463;SDS011;24243;51.956;5.902;2023-05-10T11:51:26;2.50;;;1.80;;
38463;SDS011;24243;51.956;5.902;2023-05-10T11:53:53;3.40;;;2.17;;
38463;SDS011;24243;51.956;5.902;2023-05-10T11:56:20;2.00;;;1.67;;
38463;SDS011;24243;51.956;5.902;2023-05-10T11:58:51;2.60;;;1.90;;
38463;SDS011;24243;51.956;5.902;2023-05-10T12:01:23;2.33;;;1.88;;
38463;SDS011;24243;51.956;5.902;2023-05-10T12:03:51;3.08;;;2.03;;
38463;SDS011;24243;51.956;5.902;2023-05-10T12:06:19;2.45;;;1.80;;
38463;SDS011;24243;51.956;5.902;2023-05-10T12:08:46;2.38;;;1.85;;
38463;SDS011;24243;51.956;5.902;2023-05-10T12:11:12;3.17;;;1.92;;
38463;SDS011;24243;51.956;5.902;2023-05-10T12:13:41;2.25;;;1.65;;
38463;SDS011;24243;51.956;5.902;2023-05-10T12:16:24;2.22;;;1.52;;
38463;SDS011;24243;51.956;5.902;2023-05-10T12:18:56;2.00;;;1.75;;
38463;SDS011;24243;51.956;5.902;2023-05-10T12:21:23;1.92;;;1.60;;
38463;SDS011;24243;51.956;5.902;2023-05-10T12:23:50;2.63;;;1.85;;
38463;SDS011;24243;51.956;5.902;2023-05-10T12:26:17;2.67;;;1.70;;
38463;SDS011;24243;51.956;5.902;2023-05-10T12:28:43;3.33;;;2.20;;
38463;SDS011;24243;51.956;5.902;2023-05-10T12:31:09;1.77;;;1.55;;
38463;SDS011;24243;51.956;5.902;2023-05-10T12:33:39;2.58;;;1.30;;
38463;SDS011;24243;51.956;5.902;2023-05-10T12:36:08;2.33;;;1.50;;
38463;SDS011;24243;51.956;5.902;2023-05-10T12:38:38;1.85;;;1.58;;
38463;SDS011;24243;51.956;5.902;2023-05-10T12:41:11;2.47;;;1.88;;
38463;SDS011;24243;51.956;5.902;2023-05-10T12:43:38;2.17;;;1.80;;
38463;SDS011;24243;51.956;5.902;2023-05-10T12:46:08;3.20;;;2.00;;
38463;SDS011;24243;51.956;5.902;2023-05-10T12:48:39;2.45;;;1.85;;
38463;SDS011;24243;51.956;5.902;2023-05-10T12:51:07;2.28;;;1.70;;
38463;SDS011;24243;51.956;5.902;2023-05-10T12:53:34;2.30;;;1.60;;
38463;SDS011;24243;51.956;5.902;2023-05-10T12:56:01;1.60;;;1.30;;
38463;SDS011;24243;51.956;5.902;2023-05-10T12:58:27;2.05;;;1.50;;
38463;SDS011;24243;51.956;5.902;2023-05-10T13:00:52;2.22;;;1.52;;
38463;SDS011;24243;51.956;5.902;2023-05-10T13:03:18;2.30;;;1.58;;
38463;SDS011;24243;51.956;5.902;2023-05-10T13:05:44;2.75;;;1.88;;
38463;SDS011;24243;51.956;5.902;2023-05-10T13:08:10;2.97;;;1.75;;
38463;SDS011;24243;51.956;5.902;2023-05-10T13:10:36;4.22;;;1.98;;
38463;SDS011;24243;51.956;5.902;2023-05-10T13:13:01;2.78;;;1.80;;
38463;SDS011;24243;51.956;5.902;2023-05-10T13:15:27;4.57;;;1.63;;
38463;SDS011;24243;51.956;5.902;2023-05-10T13:17:53;2.58;;;1.67;;
38463;SDS011;24243;51.956;5.902;2023-05-10T13:20:20;3.45;;;1.42;;
38463;SDS011;24243;51.956;5.902;2023-05-10T13:22:45;2.38;;;1.60;;
38463;SDS011;24243;51.956;5.902;2023-05-10T13:25:11;3.42;;;1.40;;
38463;SDS011;24243;51.956;5.902;2023-05-10T13:27:38;2.60;;;1.55;;
38463;SDS011;24243;51.956;5.902;2023-05-10T13:30:05;3.28;;;2.10;;
38463;SDS011;24243;51.956;5.902;2023-05-10T13:32:31;1.98;;;1.48;;
38463;SDS011;24243;51.956;5.902;2023-05-10T13:34:58;2.85;;;1.80;;
38463;SDS011;24243;51.956;5.902;2023-05-10T13:37:24;3.60;;;1.63;;
38463;SDS011;24243;51.956;5.902;2023-05-10T13:39:49;3.38;;;1.73;;
38463;SDS011;24243;51.956;5.902;2023-05-10T13:42:15;3.97;;;1.88;;
38463;SDS011;24243;51.956;5.902;2023-05-10T13:44:41;5.03;;;1.80;;
38463;SDS011;24243;51.956;5.902;2023-05-10T13:47:06;4.30;;;1.70;;
38463;SDS011;24243;51.956;5.902;2023-05-10T13:49:32;3.65;;;1.55;;
38463;SDS011;24243;51.956;5.902;2023-05-10T13:51:59;3.55;;;1.85;;
38463;SDS011;24243;51.956;5.902;2023-05-10T13:54:31;3.50;;;1.50;;
38463;SDS011;24243;51.956;5.902;2023-05-10T13:57:00;3.70;;;1.73;;
38463;SDS011;24243;51.956;5.902;2023-05-10T13:59:26;4.50;;;1.77;;
38463;SDS011;24243;51.956;5.902;2023-05-10T14:01:52;3.47;;;1.45;;
38463;SDS011;24243;51.956;5.902;2023-05-10T14:04:18;2.50;;;1.33;;
38463;SDS011;24243;51.956;5.902;2023-05-10T14:06:43;4.30;;;1.77;;
38463;SDS011;24243;51.956;5.902;2023-05-10T14:09:09;5.40;;;1.60;;
38463;SDS011;24243;51.956;5.902;2023-05-10T14:11:35;3.15;;;1.50;;
38463;SDS011;24243;51.956;5.902;2023-05-10T14:14:00;2.40;;;1.67;;
38463;SDS011;24243;51.956;5.902;2023-05-10T14:16:26;5.35;;;1.92;;
38463;SDS011;24243;51.956;5.902;2023-05-10T14:18:53;7.00;;;2.60;;
38463;SDS011;24243;51.956;5.902;2023-05-10T14:21:19;3.35;;;1.83;;
38463;SDS011;24243;51.956;5.902;2023-05-10T14:23:44;2.40;;;1.55;;
38463;SDS011;24243;51.956;5.902;2023-05-10T14:26:10;3.30;;;1.70;;
38463;SDS011;24243;51.956;5.902;2023-05-10T14:28:36;4.85;;;1.50;;
38463;SDS011;24243;51.956;5.902;2023-05-10T14:31:02;3.42;;;1.40;;
38463;SDS011;24243;51.956;5.902;2023-05-10T14:33:27;2.95;;;1.80;;
38463;SDS011;24243;51.956;5.902;2023-05-10T14:35:53;3.67;;;1.63;;
38463;SDS011;24243;51.956;5.902;2023-05-10T14:38:21;6.13;;;2.08;;
38463;SDS011;24243;51.956;5.902;2023-05-10T14:40:47;3.60;;;1.67;;
38463;SDS011;24243;51.956;5.902;2023-05-10T14:43:13;5.65;;;1.58;;
38463;SDS011;24243;51.956;5.902;2023-05-10T14:45:38;3.05;;;1.50;;
38463;SDS011;24243;51.956;5.902;2023-05-10T14:48:04;2.95;;;1.50;;
38463;SDS011;24243;51.956;5.902;2023-05-10T14:50:30;2.35;;;1.27;;
38463;SDS011;24243;51.956;5.902;2023-05-10T14:52:57;2.10;;;1.35;;
38463;SDS011;24243;51.956;5.902;2023-05-10T14:55:24;5.15;;;1.58;;
38463;SDS011;24243;51.956;5.902;2023-05-10T14:57:49;2.63;;;1.23;;
38463;SDS011;24243;51.956;5.902;2023-05-10T15:00:15;3.65;;;1.83;;
38463;SDS011;24243;51.956;5.902;2023-05-10T15:02:42;3.08;;;1.23;;
38463;SDS011;24243;51.956;5.902;2023-05-10T15:05:07;4.40;;;1.55;;
38463;SDS011;24243;51.956;5.902;2023-05-10T15:07:33;3.63;;;1.15;;
38463;SDS011;24243;51.956;5.902;2023-05-10T15:09:59;2.78;;;1.35;;
38463;SDS011;24243;51.956;5.902;2023-05-10T15:12:25;1.63;;;1.27;;
38463;SDS011;24243;51.956;5.902;2023-05-10T15:14:51;2.00;;;1.10;;
38463;SDS011;24243;51.956;5.902;2023-05-10T15:17:16;2.40;;;1.30;;
38463;SDS011;24243;51.956;5.902;2023-05-10T15:19:42;1.90;;;1.08;;